createdAt,value
2023-03-06T00:00:17.135Z,50.83
2023-03-06T00:03:01.899Z,48.30
2023-03-06T00:05:46.944Z,47.72
2023-03-06T00:08:31.703Z,47.49
2023-03-06T00:11:16.567Z,48.89
2023-03-06T00:14:01.424Z,47.09
2023-03-06T00:16:46.374Z,48.20
2023-03-06T00:19:31.300Z,47.39
2023-03-06T00:22:16.089Z,48.03
2023-03-06T00:25:01.090Z,48.92
2023-03-06T00:27:45.995Z,49.20
2023-03-06T00:30:31.478Z,48.19
2023-03-06T00:33:16.390Z,49.13
2023-03-06T00:36:01.376Z,47.43
2023-03-06T00:38:46.261Z,48.03
2023-03-06T00:41:31.220Z,48.78
2023-03-06T00:44:16.075Z,50.62
2023-03-06T00:47:00.844Z,49.62
2023-03-06T00:49:45.904Z,50.52
2023-03-06T00:52:30.749Z,51.44
2023-03-06T00:55:15.773Z,51.42
2023-03-06T00:58:00.591Z,50.04
2023-03-06T01:00:45.506Z,51.32
2023-03-06T01:03:30.780Z,52.21
2023-03-06T01:06:15.541Z,51.12
2023-03-06T01:09:00.590Z,51.13
2023-03-06T01:11:45.511Z,52.69
2023-03-06T01:14:30.536Z,50.75
2023-03-06T01:17:15.317Z,50.69
2023-03-06T01:20:00.307Z,52.10
2023-03-06T01:22:45.169Z,52.16
2023-03-06T01:25:30.180Z,51.06
2023-03-06T01:28:15.043Z,52.94
2023-03-06T01:30:59.844Z,52.68
2023-03-06T01:33:44.705Z,51.19
2023-03-06T01:36:29.563Z,52.70
2023-03-06T01:39:14.339Z,52.97
2023-03-06T01:41:59.109Z,52.55
2023-03-06T01:44:44.151Z,53.22
2023-03-06T01:47:29.079Z,52.00
2023-03-06T01:50:14.176Z,51.09
2023-03-06T01:52:59.198Z,50.28
2023-03-06T01:55:44.023Z,50.59
2023-03-06T01:58:28.921Z,51.57
2023-03-06T02:01:13.862Z,51.51
2023-03-06T02:03:58.980Z,51.48
2023-03-06T02:06:43.831Z,50.13
2023-03-06T02:09:28.597Z,50.98
2023-03-06T02:12:13.488Z,51.86
2023-03-06T02:14:58.546Z,50.87
2023-03-06T02:17:43.372Z,51.43
2023-03-06T02:20:28.131Z,52.29
2023-03-06T02:23:13.051Z,52.17
2023-03-06T02:25:57.942Z,50.29
2023-03-06T02:28:42.954Z,51.26
2023-03-06T02:31:27.746Z,50.93
2023-03-06T02:34:12.704Z,49.52
2023-03-06T02:36:57.533Z,50.06
2023-03-06T02:39:42.505Z,50.90
2023-03-06T02:42:27.475Z,51.67
2023-03-06T02:45:12.452Z,49.60
2023-03-06T02:47:57.346Z,50.37
2023-03-06T02:50:42.403Z,50.76
2023-03-06T02:53:27.428Z,49.91
2023-03-06T02:56:12.165Z,48.89
2023-03-06T02:58:57.017Z,49.27
2023-03-06T03:01:41.914Z,49.60
2023-03-06T03:04:26.987Z,49.82
2023-03-06T03:07:11.943Z,47.40
2023-03-06T03:09:56.730Z,48.87
2023-03-06T03:12:41.860Z,48.26
2023-03-06T03:15:26.638Z,48.77
2023-03-06T03:18:11.580Z,50.57
2023-03-06T03:20:56.344Z,48.88
2023-03-06T03:23:41.201Z,49.58
2023-03-06T03:26:25.949Z,48.70
2023-03-06T03:29:10.923Z,49.46
2023-03-06T03:31:55.948Z,50.59
2023-03-06T03:34:40.829Z,49.15
2023-03-06T03:37:25.824Z,49.57
2023-03-06T03:40:10.699Z,50.27
2023-03-06T03:42:55.518Z,49.13
2023-03-06T03:45:40.430Z,48.78
2023-03-06T03:48:25.501Z,48.07
2023-03-06T03:51:10.312Z,48.83
2023-03-06T03:53:55.299Z,48.69
2023-03-06T03:56:40.182Z,48.90
2023-03-06T03:59:24.910Z,50.04
2023-03-06T04:02:09.941Z,50.01
2023-03-06T04:04:54.799Z,50.11
2023-03-06T04:07:39.682Z,49.92
2023-03-06T04:10:24.524Z,50.32
2023-03-06T04:13:10.195Z,50.81
2023-03-06T04:15:55.316Z,50.50
2023-03-06T04:18:40.067Z,50.06
2023-03-06T04:21:25.069Z,50.09
2023-03-06T04:24:09.856Z,50.48
2023-03-06T04:26:54.772Z,50.42
2023-03-06T04:29:39.674Z,51.72
2023-03-06T04:32:24.684Z,52.46
2023-03-06T04:35:09.433Z,50.24
2023-03-06T04:37:54.259Z,51.73
2023-03-06T04:40:39.047Z,49.68
2023-03-06T04:43:23.973Z,51.71
2023-03-06T04:46:08.988Z,51.27
2023-03-06T04:48:53.836Z,51.54
2023-03-06T04:51:38.659Z,50.87
2023-03-06T04:54:23.549Z,51.01
2023-03-06T04:57:08.579Z,49.76
2023-03-06T04:59:53.376Z,51.46
2023-03-06T05:02:38.342Z,51.80
2023-03-06T05:05:23.171Z,52.71
2023-03-06T05:08:08.029Z,50.26
2023-03-06T05:10:52.960Z,51.46
2023-03-06T05:13:38.005Z,51.40
2023-03-06T05:16:22.828Z,53.19
2023-03-06T05:19:07.609Z,51.99
2023-03-06T05:21:52.672Z,51.39
2023-03-06T05:24:37.428Z,52.91
2023-03-06T05:27:22.199Z,51.59
2023-03-06T05:30:07.084Z,51.68
2023-03-06T05:32:52.134Z,51.11
2023-03-06T05:35:36.975Z,53.24
2023-03-06T05:38:21.786Z,52.37
2023-03-06T05:41:06.741Z,52.35
2023-03-06T05:43:51.748Z,53.08
2023-03-06T05:46:36.827Z,51.43
2023-03-06T05:49:21.564Z,52.18
2023-03-06T05:52:06.523Z,51.65
2023-03-06T05:54:51.367Z,52.58
2023-03-06T05:57:36.273Z,51.05
2023-03-06T06:00:21.254Z,51.51
2023-03-06T06:03:06.148Z,50.64
2023-03-06T06:05:51.015Z,51.89
2023-03-06T06:08:35.845Z,50.95
2023-03-06T06:11:20.908Z,51.23
2023-03-06T06:14:05.753Z,51.11
2023-03-06T06:16:50.828Z,52.66
2023-03-06T06:19:35.681Z,52.81
2023-03-06T06:22:20.581Z,55.70
2023-03-06T06:25:05.392Z,53.03
2023-03-06T06:27:50.210Z,51.89
2023-03-06T06:30:35.188Z,52.83
2023-03-06T06:33:20.091Z,52.63
2023-03-06T06:36:05.086Z,50.83
2023-03-06T06:38:49.851Z,51.63
2023-03-06T06:44:40.045Z,49.77
2023-03-06T06:47:25.870Z,50.72
2023-03-06T06:50:10.826Z,50.97
2023-03-06T06:52:55.570Z,51.16
2023-03-06T06:55:40.596Z,51.34
2023-03-06T06:58:25.355Z,50.60
2023-03-06T07:01:10.270Z,50.09
2023-03-06T07:03:55.267Z,49.33
2023-03-06T07:06:39.977Z,50.57
2023-03-06T07:09:24.919Z,49.85
2023-03-06T07:12:09.706Z,49.16
2023-03-06T07:14:54.749Z,48.66
2023-03-06T07:17:39.608Z,48.48
2023-03-06T07:20:24.402Z,48.97
2023-03-06T07:23:09.278Z,48.84
2023-03-06T07:25:54.107Z,48.22
2023-03-06T07:28:51.634Z,48.68
2023-03-06T07:31:37.151Z,48.12
2023-03-06T07:34:22.029Z,48.94
2023-03-06T07:37:07.015Z,49.57
2023-03-06T07:39:52.072Z,47.46
2023-03-06T07:42:36.906Z,49.21
2023-03-06T07:45:21.728Z,48.03
2023-03-06T07:48:06.608Z,48.44
2023-03-06T07:50:51.287Z,47.62
2023-03-06T07:53:36.221Z,48.25
2023-03-06T07:56:21.346Z,49.29
2023-03-06T07:59:06.292Z,49.06
2023-03-06T08:01:51.184Z,48.89
2023-03-06T08:04:36.263Z,49.35
2023-03-06T08:07:21.065Z,49.52
2023-03-06T08:10:05.850Z,49.12
2023-03-06T08:12:50.597Z,49.79
2023-03-06T08:15:35.517Z,51.15
2023-03-06T08:18:20.308Z,50.20
2023-03-06T08:21:05.236Z,49.99
2023-03-06T08:23:50.143Z,50.16
2023-03-06T08:26:34.956Z,50.89
2023-03-06T08:29:20.090Z,49.69
2023-03-06T08:32:04.835Z,49.87
2023-03-06T08:34:49.696Z,46.72
2023-03-06T08:37:34.635Z,47.13
2023-03-06T08:40:19.502Z,48.03
2023-03-06T08:43:04.333Z,47.23
2023-03-06T08:45:49.376Z,47.24
2023-03-06T08:48:34.721Z,48.15
2023-03-06T08:51:19.562Z,47.60
2023-03-06T08:54:04.557Z,47.83
2023-03-06T08:56:49.565Z,48.89
2023-03-06T08:59:34.562Z,48.05
2023-03-06T09:02:19.446Z,45.67
2023-03-06T09:05:04.340Z,46.64
2023-03-06T09:07:49.170Z,46.87
2023-03-06T09:10:33.965Z,46.22
2023-03-06T09:13:18.914Z,47.21
2023-03-06T09:16:03.657Z,48.05
2023-03-06T09:18:48.631Z,47.98
2023-03-06T09:21:33.462Z,47.06
2023-03-06T09:24:18.358Z,47.26
2023-03-06T09:27:03.226Z,47.18
2023-03-06T09:29:48.144Z,45.72
2023-03-06T09:32:33.083Z,45.78
2023-03-06T09:35:18.429Z,46.37
2023-03-06T09:38:03.304Z,45.57
2023-03-06T09:40:48.039Z,47.43
2023-03-06T09:43:32.953Z,46.56
2023-03-06T09:46:17.778Z,47.14
2023-03-06T09:49:02.556Z,45.99
2023-03-06T09:51:47.449Z,46.86
2023-03-06T09:54:32.257Z,46.16
2023-03-06T09:57:16.995Z,46.47
2023-03-06T10:00:04.325Z,45.82
2023-03-06T10:02:50.036Z,45.78
2023-03-06T10:05:35.327Z,46.17
2023-03-06T10:08:20.115Z,46.85
2023-03-06T10:11:04.922Z,44.56
2023-03-06T10:13:49.735Z,45.60
2023-03-06T10:16:34.516Z,44.62
2023-03-06T10:19:19.445Z,44.93
2023-03-06T10:22:04.348Z,45.40
2023-03-06T10:24:49.168Z,44.71
2023-03-06T10:27:34.171Z,45.36
2023-03-06T10:30:18.930Z,45.14
2023-03-06T10:33:03.872Z,44.02
2023-03-06T10:35:49.148Z,44.85
2023-03-06T10:38:34.100Z,44.37
2023-03-06T10:41:18.933Z,44.47
2023-03-06T10:44:03.713Z,45.29
2023-03-06T10:46:48.839Z,45.22
2023-03-06T10:49:34.080Z,43.83
2023-03-06T10:52:19.166Z,44.95
2023-03-06T10:55:04.081Z,43.32
2023-03-06T10:57:49.045Z,44.54
2023-03-06T11:00:34.045Z,44.04
2023-03-06T11:03:19.023Z,43.27
2023-03-06T11:06:04.032Z,42.58
2023-03-06T11:08:48.898Z,42.86
2023-03-06T11:11:37.766Z,43.57
2023-03-06T11:14:23.304Z,44.23
2023-03-06T11:17:08.305Z,43.97
2023-03-06T11:19:53.294Z,42.46
2023-03-06T11:22:38.114Z,41.46
2023-03-06T11:25:22.989Z,42.51
2023-03-06T11:28:07.859Z,41.19
2023-03-06T11:30:52.925Z,41.91
2023-03-06T11:33:37.933Z,41.54
2023-03-06T11:36:22.788Z,40.23
2023-03-06T11:39:07.693Z,39.25
2023-03-06T11:41:52.586Z,40.27
2023-03-06T11:44:37.656Z,39.13
2023-03-06T11:47:22.470Z,38.18
2023-03-06T11:50:07.491Z,38.06
2023-03-06T11:52:52.267Z,37.12
2023-03-06T11:55:37.254Z,36.58
2023-03-06T11:58:22.209Z,37.53
2023-03-06T12:01:07.157Z,36.09
2023-03-06T12:03:52.224Z,37.27
2023-03-06T12:06:37.130Z,37.36
2023-03-06T12:09:21.981Z,44.29
2023-03-06T12:12:06.832Z,38.98
2023-03-06T12:14:51.824Z,37.91
2023-03-06T12:17:36.747Z,37.91
2023-03-06T12:20:21.787Z,36.05
2023-03-06T12:23:14.905Z,37.57
2023-03-06T12:26:01.072Z,39.52
2023-03-06T12:28:46.554Z,36.88
2023-03-06T12:31:32.018Z,37.33
2023-03-06T12:34:16.779Z,37.53
2023-03-06T12:37:01.856Z,37.82
2023-03-06T12:39:46.771Z,34.20
2023-03-06T12:42:31.661Z,36.45
2023-03-06T12:45:16.622Z,35.46
2023-03-06T12:48:01.599Z,34.06
2023-03-06T12:50:46.441Z,36.06
2023-03-06T12:53:31.317Z,34.61
2023-03-06T12:56:16.237Z,34.54
2023-03-06T12:59:01.156Z,34.43
2023-03-06T13:01:46.205Z,33.43
2023-03-06T13:04:31.034Z,34.10
2023-03-06T13:07:16.000Z,34.25
2023-03-06T13:10:01.005Z,32.37
2023-03-06T13:12:45.876Z,33.97
2023-03-06T13:15:30.740Z,32.79
2023-03-06T13:18:15.608Z,33.66
2023-03-06T13:21:00.678Z,34.32
2023-03-06T13:23:45.621Z,32.30
2023-03-06T13:26:30.478Z,31.18
2023-03-06T13:29:15.442Z,32.23
2023-03-06T13:32:00.485Z,32.41
2023-03-06T13:34:45.725Z,33.03
2023-03-06T13:37:30.508Z,33.20
2023-03-06T13:40:15.388Z,31.83
2023-03-06T13:43:00.096Z,32.05
2023-03-06T13:45:45.133Z,32.39
2023-03-06T13:48:43.823Z,33.33
2023-03-06T13:51:29.552Z,31.32
2023-03-06T13:54:14.327Z,30.29
2023-03-06T13:56:59.247Z,29.37
2023-03-06T13:59:44.131Z,31.36
2023-03-06T14:02:29.089Z,28.28
2023-03-06T14:05:13.941Z,26.03
2023-03-06T14:07:58.784Z,27.08
2023-03-06T14:10:43.792Z,29.09
2023-03-06T14:13:35.044Z,32.14
2023-03-06T14:16:23.244Z,32.21
2023-03-06T14:19:08.172Z,32.31
2023-03-06T14:21:53.048Z,31.34
2023-03-06T14:24:37.882Z,30.14
2023-03-06T14:27:22.866Z,28.56
2023-03-06T14:30:07.908Z,28.18
2023-03-06T14:32:52.762Z,28.68
2023-03-06T14:35:37.618Z,32.35
2023-03-06T14:38:22.591Z,33.38
2023-03-06T14:41:07.459Z,33.30
2023-03-06T14:43:52.419Z,32.29
2023-03-06T14:46:37.446Z,31.89
2023-03-06T14:49:22.243Z,26.29
2023-03-06T14:52:07.116Z,25.16
2023-03-06T14:54:51.832Z,22.32
2023-03-06T14:57:36.932Z,24.99
2023-03-06T15:00:21.750Z,22.38
2023-03-06T15:03:06.731Z,20.72
2023-03-06T15:05:51.980Z,20.34
2023-03-06T15:08:36.905Z,20.06
2023-03-06T15:11:21.773Z,19.66
2023-03-06T15:14:06.698Z,19.72
2023-03-06T15:16:51.583Z,20.08
2023-03-06T15:19:36.397Z,19.34
2023-03-06T15:22:21.677Z,19.59
2023-03-06T15:25:06.812Z,18.78
2023-03-06T15:27:51.608Z,18.96
2023-03-06T15:30:36.397Z,20.67
2023-03-06T15:33:21.252Z,23.08
2023-03-06T15:36:06.087Z,21.89
2023-03-06T15:38:50.861Z,22.04
2023-03-06T15:41:35.709Z,22.76
2023-03-06T15:44:20.549Z,21.25
2023-03-06T15:47:09.395Z,19.47
2023-03-06T15:49:54.555Z,18.55
2023-03-06T15:52:39.378Z,18.47
2023-03-06T15:55:24.370Z,18.28
2023-03-06T15:58:09.229Z,17.07
2023-03-06T16:00:54.110Z,15.78
2023-03-06T16:03:38.908Z,16.25
2023-03-06T16:06:23.841Z,16.19
2023-03-06T16:09:08.812Z,15.03
2023-03-06T16:11:53.788Z,14.30
2023-03-06T16:14:38.820Z,14.91
2023-03-06T16:17:23.531Z,13.55
2023-03-06T16:20:08.504Z,15.15
2023-03-06T16:22:53.408Z,20.46
2023-03-06T16:25:38.351Z,21.77
2023-03-06T16:28:23.280Z,18.49
2023-03-06T16:31:08.318Z,18.82
2023-03-06T16:33:53.109Z,16.45
2023-03-06T16:36:38.027Z,16.91
2023-03-06T16:39:23.034Z,17.13
2023-03-06T16:42:07.839Z,15.17
2023-03-06T16:44:52.962Z,15.83
2023-03-06T16:47:37.695Z,15.15
2023-03-06T16:50:22.774Z,15.72
2023-03-06T16:53:07.524Z,15.52
2023-03-06T16:55:52.564Z,15.50
2023-03-06T16:58:37.338Z,14.82
2023-03-06T17:01:22.315Z,14.15
2023-03-06T17:04:07.189Z,13.72
2023-03-06T17:06:52.036Z,14.78
2023-03-06T17:09:36.960Z,14.42
2023-03-06T17:12:21.721Z,12.97
2023-03-06T17:15:06.746Z,11.89
2023-03-06T17:17:51.695Z,12.11
2023-03-06T17:20:36.515Z,11.89
2023-03-06T17:23:21.337Z,13.64
2023-03-06T17:26:06.317Z,12.46
2023-03-06T17:28:51.265Z,12.24
2023-03-06T17:31:36.021Z,12.01
2023-03-06T17:34:23.042Z,13.57
2023-03-06T17:37:09.343Z,13.32
2023-03-06T17:39:54.188Z,12.69
2023-03-06T17:42:39.064Z,12.98
2023-03-06T17:45:24.155Z,12.98
2023-03-06T17:48:09.262Z,12.48
2023-03-06T17:50:54.100Z,12.09
2023-03-06T17:53:39.115Z,11.60
2023-03-06T17:56:24.041Z,11.72
2023-03-06T17:59:08.875Z,12.21
2023-03-06T18:01:53.875Z,13.33
2023-03-06T18:04:38.795Z,13.90
2023-03-06T18:07:23.765Z,13.68
2023-03-06T18:10:08.662Z,13.71
2023-03-06T18:12:53.761Z,12.32
2023-03-06T18:15:38.646Z,13.56
2023-03-06T18:18:23.518Z,13.48
2023-03-06T18:21:08.321Z,12.52
2023-03-06T18:23:53.132Z,13.16
2023-03-06T18:26:38.019Z,12.59
2023-03-06T18:29:22.980Z,12.83
2023-03-06T18:32:07.809Z,11.85
2023-03-06T18:34:52.711Z,14.32
2023-03-06T18:37:37.518Z,13.66
2023-03-06T18:40:24.781Z,12.16
2023-03-06T18:43:09.930Z,12.14
2023-03-06T18:45:54.945Z,11.58
2023-03-06T18:48:40.277Z,11.97
2023-03-06T18:51:25.254Z,12.60
2023-03-06T18:54:10.068Z,11.39
2023-03-06T18:56:55.055Z,11.95
2023-03-06T18:59:39.918Z,13.44
2023-03-06T19:02:24.763Z,13.09
2023-03-06T19:05:09.756Z,12.98
2023-03-06T19:07:54.641Z,12.94
2023-03-06T19:10:39.594Z,13.44
2023-03-06T19:13:24.492Z,13.02
2023-03-06T19:16:09.347Z,13.15
2023-03-06T19:18:54.118Z,12.83
2023-03-06T19:21:39.063Z,12.55
2023-03-06T19:24:23.960Z,13.20
2023-03-06T19:27:08.893Z,12.91
2023-03-06T19:29:53.812Z,13.57
2023-03-06T19:32:38.806Z,13.46
2023-03-06T19:35:24.080Z,13.28
2023-03-06T19:38:08.990Z,13.39
2023-03-06T19:40:53.966Z,13.61
2023-03-06T19:43:38.887Z,14.71
2023-03-06T19:46:23.819Z,14.81
2023-03-06T19:49:08.726Z,15.00
2023-03-06T19:51:53.683Z,15.12
2023-03-06T19:54:38.562Z,14.94
2023-03-06T19:57:23.568Z,15.61
2023-03-06T20:00:08.462Z,15.49
2023-03-06T20:02:53.165Z,15.44
2023-03-06T20:05:38.300Z,15.05
2023-03-06T20:08:23.371Z,14.76
2023-03-06T20:11:08.317Z,15.90
2023-03-06T20:13:53.067Z,15.30
2023-03-06T20:16:37.936Z,15.55
2023-03-06T20:19:22.785Z,15.31
2023-03-06T20:22:07.879Z,15.46
2023-03-06T20:24:52.818Z,15.74
2023-03-06T20:27:37.659Z,15.55
2023-03-06T20:30:22.659Z,15.34
2023-03-06T20:33:07.578Z,15.90
2023-03-06T20:35:52.551Z,15.19
2023-03-06T20:38:37.500Z,16.26
2023-03-06T20:41:22.216Z,17.35
2023-03-06T20:44:07.113Z,16.18
2023-03-06T20:46:51.942Z,16.35
2023-03-06T20:49:36.850Z,17.31
2023-03-06T20:52:21.803Z,16.86
2023-03-06T20:55:06.738Z,16.79
2023-03-06T20:57:51.707Z,16.46
2023-03-06T21:00:36.737Z,16.73
2023-03-06T21:03:21.661Z,16.96
2023-03-06T21:06:06.731Z,17.01
2023-03-06T21:08:51.478Z,17.09
2023-03-06T21:11:36.444Z,16.71
2023-03-06T21:14:21.425Z,16.29
2023-03-06T21:17:06.193Z,15.90
2023-03-06T21:19:51.243Z,16.43
2023-03-06T21:22:36.087Z,16.80
2023-03-06T21:25:21.055Z,16.58
2023-03-06T21:28:05.928Z,15.87
2023-03-06T21:30:50.974Z,15.70
2023-03-06T21:33:35.784Z,16.09
2023-03-06T21:36:20.601Z,16.18
2023-03-06T21:39:05.403Z,16.27
2023-03-06T21:41:50.283Z,16.40
2023-03-06T21:44:35.444Z,15.82
2023-03-06T21:47:20.524Z,15.75
2023-03-06T21:50:05.376Z,15.82
2023-03-06T21:52:50.123Z,15.87
2023-03-06T21:55:35.041Z,15.61
2023-03-06T21:58:19.902Z,15.74
2023-03-06T22:01:04.946Z,16.16
2023-03-06T22:03:50.009Z,15.39
2023-03-06T22:06:34.903Z,15.98
2023-03-06T22:09:19.868Z,15.53
2023-03-06T22:12:04.692Z,15.27
2023-03-06T22:14:49.520Z,15.56
2023-03-06T22:17:34.401Z,15.93
2023-03-06T22:20:19.192Z,16.34
2023-03-06T22:23:04.047Z,16.06
2023-03-06T22:25:48.897Z,15.94
2023-03-06T22:28:33.813Z,16.82
2023-03-06T22:31:18.720Z,16.45
2023-03-06T22:34:03.562Z,16.02
2023-03-06T22:36:48.335Z,15.38
2023-03-06T22:39:33.259Z,15.33
2023-03-06T22:42:18.109Z,16.24
2023-03-06T22:45:03.051Z,15.88
2023-03-06T22:47:47.779Z,16.24
2023-03-06T22:50:32.715Z,16.15
2023-03-06T22:53:17.637Z,16.23
2023-03-06T22:56:02.601Z,15.57
2023-03-06T22:58:47.558Z,16.06
2023-03-06T23:01:32.481Z,15.96
2023-03-06T23:04:17.540Z,15.20
2023-03-06T23:07:02.779Z,15.03
2023-03-06T23:09:47.720Z,15.94
2023-03-06T23:12:32.632Z,15.19
2023-03-06T23:15:17.696Z,15.86
2023-03-06T23:18:02.461Z,15.61
2023-03-06T23:20:47.423Z,14.86
2023-03-06T23:23:32.530Z,14.79
2023-03-06T23:26:17.323Z,15.47
2023-03-06T23:29:02.207Z,14.86
2023-03-06T23:31:47.059Z,14.85
2023-03-06T23:34:32.000Z,15.13
2023-03-06T23:37:16.928Z,15.07
2023-03-06T23:40:01.878Z,15.47
2023-03-06T23:42:46.773Z,15.10
2023-03-06T23:45:31.753Z,15.03
2023-03-06T23:48:16.700Z,16.02
2023-03-06T23:51:01.604Z,15.14
2023-03-06T23:53:46.483Z,15.13
2023-03-06T23:56:31.292Z,15.18
2023-03-06T23:59:16.247Z,15.94
